createdAt,value
2023-02-22T00:00:00.760Z,101670
2023-02-22T00:01:00.777Z,101680
2023-02-22T00:02:00.763Z,101670
2023-02-22T00:03:00.786Z,101680
2023-02-22T00:04:01.309Z,101670
2023-02-22T00:05:00.758Z,101680
2023-02-22T00:06:01.881Z,101680
2023-02-22T00:07:00.829Z,101680
2023-02-22T00:08:00.811Z,101680
2023-02-22T00:09:00.793Z,101670
2023-02-22T00:10:00.814Z,101680
2023-02-22T00:11:02.516Z,101680
2023-02-22T00:12:00.786Z,101670
2023-02-22T00:13:00.782Z,101680
2023-02-22T00:14:00.782Z,101680
2023-02-22T00:15:00.789Z,101670
2023-02-22T00:16:00.970Z,101670
2023-02-22T00:17:00.755Z,101670
2023-02-22T00:18:01.581Z,101670
2023-02-22T00:19:00.756Z,101670
2023-02-22T00:20:01.061Z,101670
2023-02-22T00:21:01.055Z,101670
2023-02-22T00:22:00.766Z,101670
2023-02-22T00:23:00.762Z,101670
2023-02-22T00:24:00.983Z,101670
2023-02-22T00:25:00.762Z,101680
2023-02-22T00:26:00.749Z,101670
2023-02-22T00:27:00.777Z,101670
2023-02-22T00:28:01.269Z,101670
2023-02-22T00:29:00.813Z,101670
2023-02-22T00:30:00.919Z,101670
2023-02-22T00:31:00.778Z,101670
2023-02-22T00:32:00.836Z,101670
2023-02-22T00:33:01.122Z,101680
2023-02-22T00:34:00.760Z,101680
2023-02-22T00:35:00.751Z,101680
2023-02-22T00:36:00.755Z,101680
2023-02-22T00:37:00.743Z,101680
2023-02-22T00:38:01.530Z,101690
2023-02-22T00:39:00.797Z,101680
2023-02-22T00:40:00.972Z,101690
2023-02-22T00:41:00.782Z,101680
2023-02-22T00:42:00.868Z,101690
2023-02-22T00:43:02.070Z,101680
2023-02-22T00:44:00.774Z,101680
2023-02-22T00:45:01.053Z,101680
2023-02-22T00:46:00.885Z,101690
2023-02-22T00:47:00.779Z,101690
2023-02-22T00:48:01.397Z,101690
2023-02-22T00:49:00.772Z,101690
2023-02-22T00:50:00.812Z,101680
2023-02-22T00:51:00.819Z,101690
2023-02-22T00:52:00.793Z,101680
2023-02-22T00:53:01.907Z,101680
2023-02-22T00:59:00.726Z,101670
2023-02-22T01:00:05.011Z,101670
2023-02-22T01:01:00.764Z,101670
2023-02-22T01:02:00.908Z,101670
2023-02-22T01:03:00.873Z,101670
2023-02-22T01:04:00.655Z,101670
2023-02-22T01:05:00.696Z,101670
2023-02-22T01:06:00.671Z,101670
2023-02-22T01:07:00.791Z,101660
2023-02-22T01:08:01.396Z,101670
2023-02-22T01:09:01.087Z,101660
2023-02-22T01:10:01.451Z,101660
2023-02-22T01:11:00.687Z,101660
2023-02-22T01:12:00.715Z,101660
2023-02-22T01:13:01.347Z,101660
2023-02-22T01:14:00.717Z,101670
2023-02-22T01:15:01.653Z,101670
2023-02-22T01:16:00.720Z,101670
2023-02-22T01:17:00.676Z,101670
2023-02-22T01:18:00.702Z,101670
2023-02-22T01:19:00.679Z,101670
2023-02-22T01:20:01.007Z,101670
2023-02-22T01:21:01.427Z,101670
2023-02-22T01:22:00.702Z,101670
2023-02-22T01:23:02.036Z,101670
2023-02-22T01:24:00.774Z,101670
2023-02-22T01:25:00.698Z,101670
2023-02-22T01:26:01.081Z,101670
2023-02-22T01:27:00.687Z,101670
2023-02-22T01:28:01.295Z,101660
2023-02-22T01:29:00.691Z,101660
2023-02-22T01:30:01.073Z,101660
2023-02-22T01:31:00.819Z,101660
2023-02-22T01:32:00.775Z,101660
2023-02-22T01:33:01.893Z,101650
2023-02-22T01:34:00.676Z,101650
2023-02-22T01:35:00.917Z,101650
2023-02-22T01:36:00.723Z,101650
2023-02-22T01:37:00.686Z,101650
2023-02-22T01:38:00.741Z,101650
2023-02-22T01:39:00.692Z,101650
2023-02-22T01:40:00.856Z,101650
2023-02-22T01:41:00.671Z,101650
2023-02-22T01:42:00.861Z,101640
2023-02-22T01:43:02.718Z,101640
2023-02-22T01:44:10.512Z,101630
2023-02-22T01:45:10.510Z,101630
2023-02-22T01:46:01.740Z,101630
2023-02-22T01:47:02.183Z,101630
2023-02-22T01:48:03.722Z,101630
2023-02-22T01:49:02.103Z,101620
2023-02-22T01:50:00.897Z,101620
2023-02-22T01:51:05.547Z,101620
2023-02-22T01:52:02.237Z,101620
2023-02-22T01:53:00.812Z,101620
2023-02-22T01:54:03.211Z,101620
2023-02-22T01:55:00.714Z,101620
2023-02-22T01:56:01.420Z,101620
2023-02-22T01:57:07.231Z,101620
2023-02-22T01:58:01.440Z,101620
2023-02-22T01:59:02.308Z,101620
2023-02-22T02:00:04.261Z,101620
2023-02-22T02:01:00.750Z,101610
2023-02-22T02:02:01.008Z,101610
2023-02-22T02:03:04.242Z,101610
2023-02-22T02:04:03.536Z,101610
2023-02-22T02:05:00.934Z,101600
2023-02-22T02:06:02.760Z,101600
2023-02-22T02:07:03.294Z,101600
2023-02-22T02:08:04.560Z,101600
2023-02-22T02:09:08.931Z,101590
2023-02-22T02:10:01.774Z,101590
2023-02-22T02:11:01.523Z,101590
2023-02-22T02:12:01.080Z,101590
2023-02-22T02:13:00.871Z,101590
2023-02-22T02:14:00.715Z,101590
2023-02-22T02:15:10.512Z,101600
2023-02-22T02:16:00.722Z,101600
2023-02-22T02:17:00.790Z,101600
2023-02-22T02:18:03.876Z,101600
2023-02-22T02:19:00.818Z,101610
2023-02-22T02:20:01.633Z,101610
2023-02-22T02:21:10.511Z,101630
2023-02-22T02:22:09.449Z,101640
2023-02-22T02:23:04.034Z,101640
2023-02-22T02:24:10.502Z,101650
2023-02-22T02:25:08.094Z,101650
2023-02-22T02:26:10.511Z,101650
2023-02-22T02:27:01.667Z,101650
2023-02-22T02:28:09.013Z,101650
2023-02-22T02:29:10.535Z,101650
2023-02-22T02:30:00.660Z,101650
2023-02-22T02:31:01.670Z,101640
2023-02-22T02:32:00.722Z,101640
2023-02-22T02:33:01.015Z,101630
2023-02-22T02:34:03.813Z,101630
2023-02-22T02:35:10.484Z,101630
2023-02-22T02:36:07.091Z,101630
2023-02-22T02:37:03.999Z,101630
2023-02-22T02:38:01.656Z,101630
2023-02-22T02:39:10.490Z,101630
2023-02-22T02:40:09.302Z,101630
2023-02-22T02:41:04.863Z,101630
2023-02-22T02:42:02.967Z,101630
2023-02-22T02:43:06.666Z,101630
2023-02-22T02:44:03.725Z,101630
2023-02-22T02:45:05.598Z,101630
2023-02-22T02:46:00.646Z,101630
2023-02-22T02:47:03.350Z,101630
2023-02-22T02:48:02.631Z,101620
2023-02-22T02:49:04.594Z,101630
2023-02-22T02:50:10.512Z,101620
2023-02-22T02:51:02.750Z,101620
2023-02-22T02:52:02.187Z,101620
2023-02-22T02:53:03.885Z,101620
2023-02-22T02:54:01.548Z,101620
2023-02-22T02:55:02.318Z,101620
2023-02-22T02:56:01.151Z,101620
2023-02-22T02:57:01.934Z,101620
2023-02-22T02:58:00.764Z,101620
2023-02-22T02:59:00.765Z,101620
2023-02-22T03:00:00.684Z,101620
2023-02-22T03:01:02.314Z,101620
2023-02-22T03:02:10.526Z,101610
2023-02-22T03:03:10.513Z,101610
2023-02-22T03:04:10.514Z,101620
2023-02-22T03:05:10.522Z,101620
2023-02-22T03:06:10.526Z,101620
2023-02-22T03:07:10.582Z,101620
2023-02-22T03:08:04.004Z,101620
2023-02-22T03:09:10.677Z,101620
2023-02-22T03:10:10.523Z,101620
2023-02-22T03:11:00.665Z,101620
2023-02-22T03:12:00.701Z,101620
2023-02-22T03:13:10.525Z,101620
2023-02-22T03:14:10.519Z,101620
2023-02-22T03:15:10.513Z,101620
2023-02-22T03:16:07.736Z,101620
2023-02-22T03:17:09.176Z,101620
2023-02-22T03:18:01.615Z,101620
2023-02-22T03:19:10.530Z,101620
2023-02-22T03:20:05.102Z,101620
2023-02-22T03:21:08.070Z,101620
2023-02-22T03:22:07.626Z,101620
2023-02-22T03:23:10.498Z,101620
2023-02-22T03:24:10.526Z,101620
2023-02-22T03:25:01.667Z,101620
2023-02-22T03:26:03.609Z,101620
2023-02-22T03:27:00.651Z,101620
2023-02-22T03:28:03.499Z,101620
2023-02-22T03:29:01.744Z,101620
2023-02-22T03:30:03.132Z,101620
2023-02-22T03:31:03.560Z,101610
2023-02-22T03:32:02.452Z,101610
2023-02-22T03:33:03.117Z,101610
2023-02-22T03:34:03.672Z,101610
2023-02-22T03:35:03.694Z,101610
2023-02-22T03:36:10.497Z,101600
2023-02-22T03:37:04.290Z,101600
2023-02-22T03:38:02.401Z,101600
2023-02-22T03:39:01.419Z,101600
2023-02-22T03:40:02.765Z,101600
2023-02-22T03:41:01.399Z,101600
2023-02-22T03:42:03.658Z,101590
2023-02-22T03:43:05.925Z,101590
2023-02-22T03:44:06.030Z,101600
2023-02-22T03:45:02.029Z,101600
2023-02-22T03:46:01.817Z,101600
2023-02-22T03:47:03.209Z,101600
2023-02-22T03:48:03.520Z,101600
2023-02-22T03:49:04.206Z,101600
2023-02-22T03:50:08.186Z,101600
2023-02-22T03:51:00.989Z,101600
2023-02-22T03:52:02.082Z,101600
2023-02-22T03:53:00.846Z,101600
2023-02-22T03:54:01.521Z,101600
2023-02-22T03:55:01.418Z,101600
2023-02-22T03:56:01.933Z,101600
2023-02-22T03:57:07.320Z,101590
2023-02-22T03:58:03.866Z,101590
2023-02-22T03:59:03.776Z,101590
2023-02-22T04:00:00.954Z,101590
2023-02-22T04:01:00.836Z,101590
2023-02-22T04:02:00.704Z,101590
2023-02-22T04:03:01.051Z,101590
2023-02-22T04:04:00.781Z,101590
2023-02-22T04:05:00.942Z,101590
2023-02-22T04:06:00.753Z,101590
2023-02-22T04:07:00.781Z,101590
2023-02-22T04:08:00.834Z,101590
2023-02-22T04:09:00.772Z,101590
2023-02-22T04:10:00.795Z,101590
2023-02-22T04:11:00.894Z,101590
2023-02-22T04:12:00.804Z,101600
2023-02-22T04:13:00.684Z,101590
2023-02-22T04:14:00.692Z,101590
2023-02-22T04:15:01.045Z,101590
2023-02-22T04:16:00.705Z,101580
2023-02-22T04:17:00.721Z,101590
2023-02-22T04:18:00.801Z,101580
2023-02-22T04:19:00.813Z,101580
2023-02-22T04:20:00.791Z,101580
2023-02-22T04:21:01.166Z,101580
2023-02-22T04:22:00.785Z,101580
2023-02-22T04:23:00.685Z,101580
2023-02-22T04:24:00.725Z,101580
2023-02-22T04:25:00.697Z,101570
2023-02-22T04:26:00.749Z,101580
2023-02-22T04:27:00.701Z,101580
2023-02-22T04:28:00.799Z,101580
2023-02-22T04:29:00.763Z,101580
2023-02-22T04:30:00.671Z,101580
2023-02-22T04:31:00.778Z,101580
2023-02-22T04:32:00.743Z,101580
2023-02-22T04:33:00.685Z,101580
2023-02-22T04:34:00.962Z,101580
2023-02-22T04:35:00.728Z,101590
2023-02-22T04:36:00.828Z,101590
2023-02-22T04:37:00.690Z,101590
2023-02-22T04:38:00.688Z,101590
2023-02-22T04:39:00.669Z,101590
2023-02-22T04:40:01.452Z,101590
2023-02-22T04:41:01.293Z,101600
2023-02-22T04:42:00.805Z,101600
2023-02-22T04:43:00.669Z,101600
2023-02-22T04:44:00.772Z,101600
2023-02-22T04:45:00.727Z,101600
2023-02-22T04:46:00.718Z,101600
2023-02-22T04:47:01.229Z,101600
2023-02-22T04:48:00.775Z,101610
2023-02-22T04:49:00.712Z,101610
2023-02-22T04:50:00.774Z,101610
2023-02-22T04:51:00.884Z,101620
2023-02-22T04:52:00.725Z,101620
2023-02-22T04:53:01.011Z,101620
2023-02-22T04:54:00.742Z,101620
2023-02-22T04:55:00.752Z,101620
2023-02-22T04:56:00.688Z,101620
2023-02-22T04:57:00.708Z,101620
2023-02-22T04:58:00.690Z,101620
2023-02-22T04:59:01.171Z,101620
2023-02-22T05:00:00.725Z,101620
2023-02-22T05:01:00.704Z,101630
2023-02-22T05:02:00.812Z,101630
2023-02-22T05:03:00.678Z,101630
2023-02-22T05:04:01.912Z,101630
2023-02-22T05:05:00.731Z,101630
2023-02-22T05:06:00.707Z,101640
2023-02-22T05:07:00.697Z,101640
2023-02-22T05:08:00.720Z,101640
2023-02-22T05:09:00.814Z,101640
2023-02-22T05:10:00.679Z,101640
2023-02-22T05:11:00.686Z,101630
2023-02-22T05:12:00.771Z,101640
2023-02-22T05:13:01.552Z,101640
2023-02-22T05:14:00.659Z,101630
2023-02-22T05:15:00.708Z,101630
2023-02-22T05:16:00.723Z,101630
2023-02-22T05:17:00.919Z,101630
2023-02-22T05:18:00.767Z,101630
2023-02-22T05:19:00.688Z,101630
2023-02-22T05:20:00.944Z,101620
2023-02-22T05:21:00.663Z,101620
2023-02-22T05:22:00.677Z,101630
2023-02-22T05:23:01.661Z,101630
2023-02-22T05:24:00.932Z,101630
2023-02-22T05:25:00.674Z,101630
2023-02-22T05:26:00.748Z,101630
2023-02-22T05:27:00.743Z,101630
2023-02-22T05:28:02.783Z,101630
2023-02-22T05:29:00.696Z,101630
2023-02-22T05:30:00.640Z,101630
2023-02-22T05:31:00.805Z,101640
2023-02-22T05:32:00.782Z,101640
2023-02-22T05:33:01.113Z,101640
2023-02-22T05:34:00.890Z,101640
2023-02-22T05:35:00.777Z,101640
2023-02-22T05:36:00.807Z,101650
2023-02-22T05:37:00.688Z,101650
2023-02-22T05:38:00.732Z,101640
2023-02-22T05:39:00.672Z,101650
2023-02-22T05:40:00.665Z,101650
2023-02-22T05:41:00.686Z,101640
2023-02-22T05:42:00.676Z,101640
2023-02-22T05:43:00.978Z,101640
2023-02-22T05:44:00.694Z,101640
2023-02-22T05:45:00.696Z,101640
2023-02-22T05:46:00.719Z,101630
2023-02-22T05:47:00.643Z,101630
2023-02-22T05:48:01.118Z,101630
2023-02-22T05:49:00.716Z,101630
2023-02-22T05:50:00.643Z,101620
2023-02-22T05:51:00.670Z,101620
2023-02-22T05:52:00.671Z,101630
2023-02-22T05:53:00.933Z,101630
2023-02-22T05:54:00.752Z,101630
2023-02-22T05:55:00.681Z,101630
2023-02-22T05:56:00.670Z,101630
2023-02-22T05:57:00.730Z,101630
2023-02-22T05:58:00.646Z,101630
2023-02-22T05:59:00.721Z,101630
2023-02-22T06:00:01.391Z,101630
2023-02-22T06:01:02.934Z,101620
2023-02-22T06:02:00.716Z,101630
2023-02-22T06:03:02.564Z,101620
2023-02-22T06:04:00.698Z,101620
2023-02-22T06:05:00.666Z,101620
2023-02-22T06:06:00.689Z,101620
2023-02-22T06:07:00.739Z,101620
2023-02-22T06:08:01.543Z,101630
2023-02-22T06:09:00.671Z,101630
2023-02-22T06:10:00.741Z,101630
2023-02-22T06:11:00.674Z,101630
2023-02-22T06:12:00.751Z,101630
2023-02-22T06:13:00.963Z,101630
2023-02-22T06:14:00.720Z,101640
2023-02-22T06:15:00.825Z,101630
2023-02-22T06:16:01.130Z,101630
2023-02-22T06:17:00.690Z,101630
2023-02-22T06:18:01.097Z,101630
2023-02-22T06:19:00.774Z,101630
2023-02-22T06:20:01.034Z,101630
2023-02-22T06:21:00.736Z,101630
2023-02-22T06:22:00.646Z,101630
2023-02-22T06:23:00.669Z,101630
2023-02-22T06:24:01.979Z,101630
2023-02-22T06:25:02.358Z,101630
2023-02-22T06:26:00.665Z,101630
2023-02-22T06:27:01.406Z,101630
2023-02-22T06:28:00.718Z,101630
2023-02-22T06:29:00.647Z,101630
2023-02-22T06:30:01.127Z,101640
2023-02-22T06:31:00.659Z,101630
2023-02-22T06:32:00.787Z,101630
2023-02-22T06:33:00.663Z,101640
2023-02-22T06:34:01.104Z,101630
2023-02-22T06:35:00.693Z,101630
2023-02-22T06:36:00.658Z,101630
2023-02-22T06:37:00.619Z,101630
2023-02-22T06:38:00.703Z,101630
2023-02-22T06:39:00.684Z,101640
2023-02-22T06:40:04.807Z,101640
2023-02-22T06:41:00.696Z,101640
2023-02-22T06:42:00.690Z,101640
2023-02-22T06:43:00.636Z,101640
2023-02-22T06:44:00.676Z,101640
2023-02-22T06:45:00.726Z,101640
2023-02-22T06:46:00.767Z,101650
2023-02-22T06:47:00.697Z,101640
2023-02-22T06:48:00.673Z,101650
2023-02-22T06:49:00.655Z,101650
2023-02-22T06:50:00.636Z,101650
2023-02-22T06:51:00.636Z,101650
2023-02-22T06:52:03.025Z,101660
2023-02-22T06:53:00.757Z,101660
2023-02-22T06:54:00.808Z,101660
2023-02-22T06:55:00.658Z,101660
2023-02-22T06:56:00.762Z,101660
2023-02-22T06:57:00.759Z,101660
2023-02-22T06:58:01.406Z,101660
2023-02-22T06:59:02.516Z,101660
2023-02-22T07:00:00.678Z,101660
2023-02-22T07:01:00.790Z,101660
2023-02-22T07:02:00.685Z,101660
2023-02-22T07:03:02.891Z,101660
2023-02-22T07:04:00.717Z,101660
2023-02-22T07:05:00.796Z,101650
2023-02-22T07:06:01.399Z,101650
2023-02-22T07:07:00.664Z,101660
2023-02-22T07:08:02.158Z,101660
2023-02-22T07:09:00.854Z,101660
2023-02-22T07:10:00.643Z,101660
2023-02-22T07:11:00.762Z,101650
2023-02-22T07:12:00.651Z,101660
2023-02-22T07:13:01.262Z,101660
2023-02-22T07:14:00.907Z,101660
2023-02-22T07:15:00.669Z,101660
2023-02-22T07:16:00.727Z,101660
2023-02-22T07:17:00.710Z,101660
2023-02-22T07:18:01.087Z,101650
2023-02-22T07:19:00.701Z,101660
2023-02-22T07:20:01.105Z,101650
2023-02-22T07:21:00.668Z,101650
2023-02-22T07:22:00.642Z,101650
2023-02-22T07:23:00.869Z,101650
2023-02-22T07:24:00.734Z,101650
2023-02-22T07:25:00.736Z,101650
2023-02-22T07:26:01.218Z,101650
2023-02-22T07:27:00.984Z,101650
2023-02-22T07:28:00.733Z,101660
2023-02-22T07:29:00.720Z,101660
2023-02-22T07:30:00.648Z,101660
2023-02-22T07:31:00.634Z,101660
2023-02-22T07:32:01.240Z,101660
2023-02-22T07:33:01.762Z,101660
2023-02-22T07:34:00.678Z,101660
2023-02-22T07:35:00.670Z,101660
2023-02-22T07:36:00.718Z,101660
2023-02-22T07:37:00.650Z,101670
2023-02-22T07:38:00.708Z,101670
2023-02-22T07:39:00.679Z,101670
2023-02-22T07:40:01.132Z,101670
2023-02-22T07:41:00.705Z,101670
2023-02-22T07:42:00.704Z,101670
2023-02-22T07:43:01.766Z,101670
2023-02-22T07:44:00.715Z,101670
2023-02-22T07:45:00.728Z,101670
2023-02-22T07:46:01.180Z,101680
2023-02-22T07:47:00.777Z,101680
2023-02-22T07:48:02.384Z,101680
2023-02-22T07:49:00.732Z,101680
2023-02-22T07:50:00.726Z,101690
2023-02-22T07:51:00.756Z,101680
2023-02-22T07:52:00.756Z,101690
2023-02-22T07:53:02.114Z,101690
2023-02-22T07:54:00.845Z,101690
2023-02-22T07:55:00.795Z,101690
2023-02-22T07:56:01.961Z,101690
2023-02-22T07:57:01.385Z,101690
2023-02-22T07:58:02.615Z,101690
2023-02-22T07:59:00.670Z,101690
2023-02-22T08:00:00.700Z,101680
2023-02-22T08:01:01.103Z,101680
2023-02-22T08:02:00.707Z,101680
2023-02-22T08:03:01.828Z,101680
2023-02-22T08:04:00.736Z,101680
2023-02-22T08:05:00.672Z,101680
2023-02-22T08:06:01.531Z,101680
2023-02-22T08:07:00.673Z,101680
2023-02-22T08:08:00.849Z,101680
2023-02-22T08:09:00.863Z,101680
2023-02-22T08:10:00.677Z,101680
2023-02-22T08:11:01.085Z,101680
2023-02-22T08:12:00.662Z,101690
2023-02-22T08:13:01.230Z,101690
2023-02-22T08:14:00.668Z,101680
2023-02-22T08:15:00.998Z,101680
2023-02-22T08:16:00.656Z,101680
2023-02-22T08:17:00.725Z,101680
2023-02-22T08:18:01.720Z,101680
2023-02-22T08:19:00.653Z,101680
2023-02-22T08:20:00.937Z,101680
2023-02-22T08:21:00.651Z,101680
2023-02-22T08:22:00.653Z,101680
2023-02-22T08:23:01.099Z,101690
2023-02-22T08:24:00.682Z,101690
2023-02-22T08:25:00.687Z,101690
2023-02-22T08:26:06.574Z,101690
2023-02-22T08:27:00.660Z,101690
2023-02-22T08:28:02.639Z,101690
2023-02-22T08:29:00.700Z,101690
2023-02-22T08:30:01.115Z,101690
2023-02-22T08:31:00.922Z,101690
2023-02-22T08:32:01.074Z,101680
2023-02-22T08:33:01.423Z,101680
2023-02-22T08:34:00.687Z,101690
2023-02-22T08:35:01.602Z,101680
2023-02-22T08:36:00.675Z,101680
2023-02-22T08:37:00.658Z,101690
2023-02-22T08:38:02.191Z,101680
2023-02-22T08:39:00.654Z,101680
2023-02-22T08:40:00.729Z,101680
2023-02-22T08:41:00.755Z,101680
2023-02-22T08:42:00.719Z,101680
2023-02-22T08:43:00.696Z,101680
2023-02-22T08:44:00.683Z,101680
2023-02-22T08:45:00.692Z,101680
2023-02-22T08:46:00.792Z,101680
2023-02-22T08:47:00.968Z,101680
2023-02-22T08:48:00.681Z,101680
2023-02-22T08:49:00.714Z,101680
2023-02-22T08:50:01.059Z,101680
2023-02-22T08:51:00.682Z,101690
2023-02-22T08:52:00.686Z,101690
2023-02-22T08:53:01.870Z,101690
2023-02-22T08:54:00.981Z,101690
2023-02-22T08:55:00.849Z,101690
2023-02-22T08:56:00.653Z,101690
2023-02-22T08:57:00.726Z,101690
2023-02-22T08:58:01.272Z,101690
2023-02-22T08:59:00.698Z,101690
2023-02-22T09:00:00.830Z,101690
2023-02-22T09:01:00.656Z,101690
2023-02-22T09:02:00.706Z,101690
2023-02-22T09:03:01.619Z,101690
2023-02-22T09:04:00.829Z,101690
2023-02-22T09:05:00.697Z,101690
2023-02-22T09:06:00.697Z,101690
2023-02-22T09:07:00.672Z,101690
2023-02-22T09:08:00.714Z,101690
2023-02-22T09:09:00.906Z,101690
2023-02-22T09:10:00.668Z,101690
2023-02-22T09:11:00.632Z,101700
2023-02-22T09:12:00.930Z,101700
2023-02-22T09:13:01.586Z,101700
2023-02-22T09:14:00.697Z,101690
2023-02-22T09:15:00.739Z,101690
2023-02-22T09:16:00.667Z,101690
2023-02-22T09:17:00.700Z,101690
2023-02-22T09:18:00.709Z,101690
2023-02-22T09:19:00.679Z,101690
2023-02-22T09:20:00.654Z,101690
2023-02-22T09:21:00.681Z,101690
2023-02-22T09:22:00.651Z,101690
2023-02-22T09:23:01.229Z,101690
2023-02-22T09:24:00.681Z,101690
2023-02-22T09:25:11.227Z,101680
2023-02-22T09:26:00.657Z,101680
2023-02-22T09:27:00.653Z,101680
2023-02-22T09:28:00.827Z,101680
2023-02-22T09:29:00.647Z,101680
2023-02-22T09:30:00.669Z,101680
2023-02-22T09:31:01.510Z,101680
2023-02-22T09:32:00.990Z,101680
2023-02-22T09:33:02.368Z,101680
2023-02-22T09:34:03.296Z,101670
2023-02-22T09:35:00.679Z,101670
2023-02-22T09:36:00.727Z,101670
2023-02-22T09:37:00.961Z,101670
2023-02-22T09:38:01.520Z,101670
2023-02-22T09:39:00.627Z,101670
2023-02-22T09:40:00.743Z,101670
2023-02-22T09:41:10.486Z,101680
2023-02-22T09:42:03.997Z,101680
2023-02-22T09:43:04.049Z,101680
2023-02-22T09:44:10.487Z,101690
2023-02-22T09:45:05.542Z,101690
2023-02-22T09:46:07.232Z,101680
2023-02-22T09:47:01.821Z,101680
2023-02-22T09:48:15.244Z,101680
2023-02-22T09:49:06.341Z,101670
2023-02-22T09:50:02.543Z,101670
2023-02-22T09:51:02.554Z,101680
2023-02-22T09:52:00.622Z,101680
2023-02-22T09:53:10.520Z,101690
2023-02-22T09:54:02.459Z,101690
2023-02-22T09:55:06.347Z,101680
2023-02-22T09:56:04.250Z,101680
2023-02-22T09:57:03.193Z,101680
2023-02-22T09:58:05.062Z,101680
2023-02-22T09:59:02.996Z,101680
2023-02-22T10:00:10.510Z,101680
2023-02-22T10:01:08.009Z,101680
2023-02-22T10:02:09.476Z,101680
2023-02-22T10:03:10.525Z,101690
2023-02-22T10:04:10.536Z,101680
2023-02-22T10:05:06.289Z,101690
2023-02-22T10:06:10.524Z,101690
2023-02-22T10:07:10.492Z,101690
2023-02-22T10:08:02.971Z,101690
2023-02-22T10:09:02.148Z,101690
2023-02-22T10:10:00.650Z,101690
2023-02-22T10:11:08.072Z,101690
2023-02-22T10:12:08.286Z,101690
2023-02-22T10:13:07.053Z,101690
2023-02-22T10:14:01.738Z,101690
2023-02-22T10:15:10.527Z,101690
2023-02-22T10:16:00.791Z,101690
2023-02-22T10:17:10.531Z,101690
2023-02-22T10:18:01.754Z,101690
2023-02-22T10:19:10.505Z,101690
2023-02-22T10:20:10.848Z,101690
2023-02-22T10:21:10.637Z,101690
2023-02-22T10:22:01.725Z,101690
2023-02-22T10:23:00.654Z,101690
2023-02-22T10:24:00.670Z,101690
2023-02-22T10:25:10.494Z,101700
2023-02-22T10:26:07.977Z,101700
2023-02-22T10:27:00.748Z,101700
2023-02-22T10:28:05.544Z,101700
2023-02-22T10:29:08.030Z,101700
2023-02-22T10:30:00.740Z,101700
2023-02-22T10:31:04.893Z,101700
2023-02-22T10:32:02.947Z,101710
2023-02-22T10:33:09.566Z,101710
2023-02-22T10:34:03.959Z,101710
2023-02-22T10:35:00.815Z,101710
2023-02-22T10:36:00.738Z,101700
2023-02-22T10:37:10.550Z,101710
2023-02-22T10:38:10.550Z,101710
2023-02-22T10:39:10.541Z,101710
2023-02-22T10:40:10.517Z,101710
2023-02-22T10:41:08.031Z,101710
2023-02-22T10:42:02.656Z,101710
2023-02-22T10:43:01.913Z,101710
2023-02-22T10:44:01.081Z,101710
2023-02-22T10:45:00.716Z,101710
2023-02-22T10:46:02.592Z,101710
2023-02-22T10:47:02.108Z,101710
2023-02-22T10:48:03.178Z,101710
2023-02-22T10:49:04.041Z,101710
2023-02-22T10:50:00.813Z,101710
2023-02-22T10:51:02.859Z,101710
2023-02-22T10:52:01.697Z,101710
2023-02-22T10:53:00.652Z,101710
2023-02-22T10:54:10.524Z,101710
2023-02-22T10:55:14.581Z,101710
2023-02-22T10:56:10.448Z,101710
2023-02-22T10:57:00.862Z,101710
2023-02-22T10:58:03.258Z,101710
2023-02-22T10:59:02.651Z,101710
2023-02-22T11:00:10.553Z,101710
2023-02-22T11:01:10.506Z,101710
2023-02-22T11:02:07.142Z,101710
2023-02-22T11:03:02.751Z,101710
2023-02-22T11:04:00.635Z,101710
2023-02-22T11:05:03.377Z,101710
2023-02-22T11:06:10.547Z,101700
2023-02-22T11:07:00.663Z,101700
2023-02-22T11:08:10.525Z,101700
2023-02-22T11:09:05.558Z,101700
2023-02-22T11:10:02.454Z,101700
2023-02-22T11:11:01.580Z,101700
2023-02-22T11:12:10.516Z,101690
2023-02-22T11:13:10.517Z,101690
2023-02-22T11:14:00.990Z,101690
2023-02-22T11:15:10.544Z,101690
2023-02-22T11:16:10.512Z,101680
2023-02-22T11:17:05.378Z,101680
2023-02-22T11:18:00.692Z,101680
2023-02-22T11:19:00.637Z,101680
2023-02-22T11:20:00.755Z,101680
2023-02-22T11:21:04.107Z,101680
2023-02-22T11:22:10.549Z,101680
2023-02-22T11:23:01.906Z,101680
2023-02-22T11:24:03.334Z,101680
2023-02-22T11:25:01.945Z,101680
2023-02-22T11:26:03.900Z,101680
2023-02-22T11:27:01.950Z,101670
2023-02-22T11:28:10.599Z,101680
2023-02-22T11:29:08.244Z,101670
2023-02-22T11:30:08.217Z,101670
2023-02-22T11:31:10.579Z,101670
2023-02-22T11:32:02.745Z,101670
2023-02-22T11:33:01.771Z,101670
2023-02-22T11:34:01.618Z,101670
2023-02-22T11:35:10.518Z,101660
2023-02-22T11:36:01.662Z,101660
2023-02-22T11:37:10.543Z,101660
2023-02-22T11:38:10.517Z,101660
2023-02-22T11:39:00.651Z,101660
2023-02-22T11:40:08.101Z,101660
2023-02-22T11:41:10.494Z,101660
2023-02-22T11:42:10.534Z,101660
2023-02-22T11:43:10.514Z,101660
2023-02-22T11:44:10.524Z,101660
2023-02-22T11:45:08.043Z,101660
2023-02-22T11:46:05.025Z,101660
2023-02-22T11:47:01.404Z,101650
2023-02-22T11:48:02.025Z,101650
2023-02-22T11:49:01.922Z,101650
2023-02-22T11:50:00.959Z,101650
2023-02-22T11:51:09.477Z,101650
2023-02-22T11:52:10.506Z,101650
2023-02-22T11:53:10.514Z,101640
2023-02-22T11:54:01.048Z,101640
2023-02-22T11:55:04.050Z,101640
2023-02-22T11:56:10.557Z,101640
2023-02-22T11:57:00.651Z,101640
2023-02-22T11:58:09.610Z,101650
2023-02-22T11:59:10.515Z,101640
2023-02-22T12:00:10.741Z,101640
2023-02-22T12:01:04.606Z,101640
2023-02-22T12:02:10.486Z,101650
2023-02-22T12:03:11.117Z,101650
2023-02-22T12:04:10.716Z,101650
2023-02-22T12:05:10.534Z,101650
2023-02-22T12:06:10.537Z,101650
2023-02-22T12:07:10.492Z,101640
2023-02-22T12:08:05.263Z,101640
2023-02-22T12:09:01.726Z,101640
2023-02-22T12:10:04.001Z,101640
2023-02-22T12:11:10.514Z,101630
2023-02-22T12:12:10.529Z,101630
2023-02-22T12:13:10.521Z,101630
2023-02-22T12:14:08.272Z,101630
2023-02-22T12:15:00.692Z,101630
2023-02-22T12:16:10.604Z,101630
2023-02-22T12:17:10.491Z,101620
2023-02-22T12:18:08.012Z,101630
2023-02-22T12:19:07.625Z,101630
2023-02-22T12:20:04.708Z,101630
2023-02-22T12:21:02.873Z,101620
2023-02-22T12:22:04.009Z,101630
2023-02-22T12:23:04.440Z,101630
2023-02-22T12:24:06.325Z,101620
2023-02-22T12:25:10.548Z,101620
2023-02-22T12:26:00.670Z,101620
2023-02-22T12:27:04.565Z,101620
2023-02-22T12:28:23.614Z,101610
2023-02-22T12:29:05.940Z,101610
2023-02-22T12:30:04.121Z,101610
2023-02-22T12:31:01.724Z,101610
2023-02-22T12:32:06.475Z,101610
2023-02-22T12:33:06.356Z,101610